Port Austin, Michigan
Current Conditions -  °F | °C
As of 7:58 AM on Tuesday 21 Oct 2014 (Local Time) from KBAX Reporting Station
Overcast Overcast  
Wind Chill: 38°   Ceiling: 2000
Heat Index: 44°   Visibility: 10mi
Dew Point: 41°   Wind: 14mph
Humidity: 90%   Direction: 360°N
Pressure: 29.98"   Gusts: 20mph
Location:  44.05°N, 82.99°W
Report Text: KBAX 211158Z AUTO 36012G17KT 10SM OVC020 07/05 A2998 RMK AO2 7//// T00680052 10083 20068
Loading
Personal Weather Stations






























Interactive Weather Map
Tropical Storm Tracking
New forecast layout! Learn more

10-Day Weather Forecast

Advertisements
Track Severe Weather on mobile